createdAt,value
2022-08-26T00:10:21.671Z,90.3
2022-08-26T00:30:21.649Z,91.5
2022-08-26T00:50:21.615Z,90.9
2022-08-26T01:10:21.613Z,92.3
2022-08-26T01:30:21.558Z,90.7
2022-08-26T01:50:21.526Z,91.2
2022-08-26T02:10:21.502Z,92.1
2022-08-26T02:30:21.464Z,92.4
2022-08-26T02:50:21.450Z,93.9
2022-08-26T03:10:21.401Z,92.9
2022-08-26T03:30:21.373Z,95.1
2022-08-26T03:50:21.358Z,93.7
2022-08-26T04:10:21.308Z,94.3
2022-08-26T04:30:21.285Z,91.3
2022-08-26T04:50:21.248Z,94.0
2022-08-26T05:10:21.235Z,96.1
2022-08-26T05:30:21.205Z,93.9
2022-08-26T05:50:21.165Z,95.2
2022-08-26T06:10:21.139Z,95.9
2022-08-26T06:30:21.124Z,96.0
2022-08-26T06:50:21.072Z,94.5
2022-08-26T07:10:21.049Z,94.3
2022-08-26T07:30:21.018Z,93.9
2022-08-26T07:50:20.984Z,93.5
2022-08-26T08:10:20.964Z,92.7
2022-08-26T08:30:20.926Z,91.8
2022-08-26T08:50:20.902Z,89.2
2022-08-26T09:10:20.866Z,86.1
2022-08-26T09:30:20.841Z,85.5
2022-08-26T09:50:20.827Z,84.9
2022-08-26T10:10:20.778Z,83.1
2022-08-26T10:30:20.749Z,80.7
2022-08-26T10:50:20.714Z,81.8
2022-08-26T11:10:20.686Z,82.3
2022-08-26T11:30:20.658Z,80.5
2022-08-26T11:50:20.609Z,78.4
2022-08-26T12:10:20.580Z,72.6
2022-08-26T12:30:20.549Z,71.8
2022-08-26T12:50:20.524Z,68.8
2022-08-26T13:10:20.487Z,72.0
2022-08-26T13:30:20.462Z,70.8
2022-08-26T13:50:20.426Z,64.6
2022-08-26T14:10:20.424Z,67.4
2022-08-26T14:30:20.362Z,71.7
2022-08-26T14:50:20.333Z,72.7
2022-08-26T15:10:20.291Z,72.2
2022-08-26T15:30:20.270Z,70.6
2022-08-26T15:50:20.243Z,71.7
2022-08-26T16:10:20.210Z,71.0
2022-08-26T16:30:20.171Z,72.8
2022-08-26T16:50:20.149Z,71.2
2022-08-26T17:10:20.120Z,72.2
2022-08-26T17:30:20.066Z,74.9
2022-08-26T17:50:20.038Z,77.6
2022-08-26T18:10:20.013Z,78.5
2022-08-26T18:30:19.994Z,78.1
2022-08-26T18:50:19.955Z,82.4
2022-08-26T19:10:19.916Z,84.5
2022-08-26T19:30:19.885Z,84.5
2022-08-26T19:50:19.870Z,86.8
2022-08-26T20:10:19.823Z,84.1
2022-08-26T20:30:19.783Z,88.8
2022-08-26T20:50:19.765Z,91.3
2022-08-26T21:10:19.729Z,91.0
2022-08-26T21:30:19.693Z,91.6
2022-08-26T21:50:19.676Z,90.4
2022-08-26T22:10:19.634Z,91.8
2022-08-26T22:30:19.608Z,91.3
2022-08-26T22:50:19.586Z,90.9
2022-08-26T23:10:19.546Z,93.7
2022-08-26T23:30:19.508Z,96.0
2022-08-26T23:50:19.495Z,97.4
